sensor_id;sensor_type;location;lat;lon;timestamp;P1;durP1;ratioP1;P2;durP2;ratioP2
6013;SDS011;3035;49.928;8.410;2022-12-18T00:00:20;37.90;;;12.47;;
6013;SDS011;3035;49.928;8.410;2022-12-18T00:02:48;36.43;;;13.43;;
6013;SDS011;3035;49.928;8.410;2022-12-18T00:05:16;33.83;;;11.77;;
6013;SDS011;3035;49.928;8.410;2022-12-18T00:07:44;34.90;;;12.57;;
6013;SDS011;3035;49.928;8.410;2022-12-18T00:10:13;24.83;;;11.23;;
6013;SDS011;3035;49.928;8.410;2022-12-18T00:12:48;33.43;;;11.20;;
6013;SDS011;3035;49.928;8.410;2022-12-18T00:15:16;38.70;;;13.00;;
6013;SDS011;3035;49.928;8.410;2022-12-18T00:17:45;24.20;;;10.80;;
6013;SDS011;3035;49.928;8.410;2022-12-18T00:20:13;32.10;;;11.90;;
6013;SDS011;3035;49.928;8.410;2022-12-18T00:22:41;27.83;;;13.47;;
6013;SDS011;3035;49.928;8.410;2022-12-18T00:25:09;37.70;;;12.97;;
6013;SDS011;3035;49.928;8.410;2022-12-18T00:27:38;28.23;;;11.63;;
6013;SDS011;3035;49.928;8.410;2022-12-18T00:30:07;41.93;;;13.20;;
6013;SDS011;3035;49.928;8.410;2022-12-18T00:32:36;47.07;;;12.93;;
6013;SDS011;3035;49.928;8.410;2022-12-18T00:35:06;29.73;;;12.23;;
6013;SDS011;3035;49.928;8.410;2022-12-18T00:37:34;32.33;;;11.33;;
6013;SDS011;3035;49.928;8.410;2022-12-18T00:40:02;31.80;;;11.57;;
6013;SDS011;3035;49.928;8.410;2022-12-18T00:42:31;26.83;;;12.07;;
6013;SDS011;3035;49.928;8.410;2022-12-18T00:45:05;35.80;;;13.93;;
6013;SDS011;3035;49.928;8.410;2022-12-18T00:47:34;34.47;;;13.23;;
6013;SDS011;3035;49.928;8.410;2022-12-18T00:50:04;38.53;;;11.60;;
6013;SDS011;3035;49.928;8.410;2022-12-18T00:52:33;28.27;;;11.27;;
6013;SDS011;3035;49.928;8.410;2022-12-18T00:55:01;53.07;;;12.80;;
6013;SDS011;3035;49.928;8.410;2022-12-18T00:57:30;31.30;;;12.17;;
6013;SDS011;3035;49.928;8.410;2022-12-18T00:59:58;32.60;;;14.00;;
6013;SDS011;3035;49.928;8.410;2022-12-18T01:02:27;27.77;;;10.37;;
6013;SDS011;3035;49.928;8.410;2022-12-18T01:04:56;35.63;;;12.53;;
6013;SDS011;3035;49.928;8.410;2022-12-18T01:07:25;25.07;;;11.17;;
6013;SDS011;3035;49.928;8.410;2022-12-18T01:09:53;25.30;;;10.50;;
6013;SDS011;3035;49.928;8.410;2022-12-18T01:12:22;37.70;;;14.10;;
6013;SDS011;3035;49.928;8.410;2022-12-18T01:14:50;27.27;;;11.07;;
6013;SDS011;3035;49.928;8.410;2022-12-18T01:17:21;28.83;;;10.50;;
6013;SDS011;3035;49.928;8.410;2022-12-18T01:19:48;32.53;;;12.80;;
6013;SDS011;3035;49.928;8.410;2022-12-18T01:22:17;30.70;;;11.57;;
6013;SDS011;3035;49.928;8.410;2022-12-18T01:24:45;35.93;;;11.40;;
6013;SDS011;3035;49.928;8.410;2022-12-18T01:27:14;26.33;;;11.20;;
6013;SDS011;3035;49.928;8.410;2022-12-18T01:29:43;33.63;;;12.33;;
6013;SDS011;3035;49.928;8.410;2022-12-18T01:32:12;27.87;;;10.47;;
6013;SDS011;3035;49.928;8.410;2022-12-18T01:34:40;30.20;;;12.30;;
6013;SDS011;3035;49.928;8.410;2022-12-18T01:37:09;30.77;;;10.90;;
6013;SDS011;3035;49.928;8.410;2022-12-18T01:39:37;29.87;;;11.20;;
6013;SDS011;3035;49.928;8.410;2022-12-18T01:42:11;27.53;;;9.93;;
6013;SDS011;3035;49.928;8.410;2022-12-18T01:47:48;31.70;;;9.67;;
6013;SDS011;3035;49.928;8.410;2022-12-18T01:50:18;20.40;;;9.53;;
6013;SDS011;3035;49.928;8.410;2022-12-18T01:52:51;27.60;;;11.43;;
6013;SDS011;3035;49.928;8.410;2022-12-18T01:55:19;23.80;;;10.20;;
6013;SDS011;3035;49.928;8.410;2022-12-18T01:57:47;27.37;;;11.10;;
6013;SDS011;3035;49.928;8.410;2022-12-18T02:00:18;27.17;;;10.80;;
6013;SDS011;3035;49.928;8.410;2022-12-18T02:02:45;21.90;;;9.30;;
6013;SDS011;3035;49.928;8.410;2022-12-18T02:05:15;27.30;;;10.53;;
6013;SDS011;3035;49.928;8.410;2022-12-18T02:07:53;32.43;;;10.67;;
6013;SDS011;3035;49.928;8.410;2022-12-18T02:13:25;29.83;;;9.73;;
6013;SDS011;3035;49.928;8.410;2022-12-18T02:16:19;25.80;;;10.60;;
6013;SDS011;3035;49.928;8.410;2022-12-18T02:21:54;32.90;;;13.00;;
6013;SDS011;3035;49.928;8.410;2022-12-18T02:24:33;26.43;;;12.10;;
6013;SDS011;3035;49.928;8.410;2022-12-18T02:27:03;41.60;;;12.17;;
6013;SDS011;3035;49.928;8.410;2022-12-18T02:29:39;32.27;;;11.10;;
6013;SDS011;3035;49.928;8.410;2022-12-18T02:32:14;23.30;;;10.47;;
6013;SDS011;3035;49.928;8.410;2022-12-18T02:34:42;26.70;;;10.17;;
6013;SDS011;3035;49.928;8.410;2022-12-18T02:37:11;23.53;;;9.63;;
6013;SDS011;3035;49.928;8.410;2022-12-18T02:39:39;24.80;;;10.23;;
6013;SDS011;3035;49.928;8.410;2022-12-18T02:42:06;23.60;;;10.03;;
6013;SDS011;3035;49.928;8.410;2022-12-18T02:44:39;22.17;;;8.67;;
6013;SDS011;3035;49.928;8.410;2022-12-18T02:47:12;24.93;;;10.23;;
6013;SDS011;3035;49.928;8.410;2022-12-18T02:49:44;19.40;;;8.60;;
6013;SDS011;3035;49.928;8.410;2022-12-18T02:52:55;25.47;;;9.97;;
6013;SDS011;3035;49.928;8.410;2022-12-18T02:55:39;22.30;;;9.57;;
6013;SDS011;3035;49.928;8.410;2022-12-18T02:58:28;22.47;;;9.57;;
6013;SDS011;3035;49.928;8.410;2022-12-18T03:01:05;28.23;;;9.73;;
6013;SDS011;3035;49.928;8.410;2022-12-18T03:03:47;24.70;;;10.60;;
6013;SDS011;3035;49.928;8.410;2022-12-18T03:06:18;18.43;;;9.07;;
6013;SDS011;3035;49.928;8.410;2022-12-18T03:08:48;22.53;;;9.20;;
6013;SDS011;3035;49.928;8.410;2022-12-18T03:11:16;21.67;;;8.63;;
6013;SDS011;3035;49.928;8.410;2022-12-18T03:16:24;15.33;;;7.57;;
6013;SDS011;3035;49.928;8.410;2022-12-18T03:18:55;23.63;;;8.47;;
6013;SDS011;3035;49.928;8.410;2022-12-18T03:21:27;22.87;;;9.50;;
6013;SDS011;3035;49.928;8.410;2022-12-18T03:23:55;15.13;;;8.23;;
6013;SDS011;3035;49.928;8.410;2022-12-18T03:26:24;23.13;;;9.53;;
6013;SDS011;3035;49.928;8.410;2022-12-18T03:28:55;25.47;;;9.47;;
6013;SDS011;3035;49.928;8.410;2022-12-18T03:31:23;18.37;;;8.27;;
6013;SDS011;3035;49.928;8.410;2022-12-18T03:33:54;21.87;;;9.13;;
6013;SDS011;3035;49.928;8.410;2022-12-18T03:36:25;18.87;;;8.20;;
6013;SDS011;3035;49.928;8.410;2022-12-18T03:38:54;15.87;;;7.83;;
6013;SDS011;3035;49.928;8.410;2022-12-18T03:44:03;16.50;;;9.00;;
6013;SDS011;3035;49.928;8.410;2022-12-18T03:46:41;20.47;;;8.80;;
6013;SDS011;3035;49.928;8.410;2022-12-18T03:49:15;17.43;;;7.83;;
6013;SDS011;3035;49.928;8.410;2022-12-18T03:51:44;18.23;;;8.60;;
6013;SDS011;3035;49.928;8.410;2022-12-18T03:54:23;19.60;;;9.20;;
6013;SDS011;3035;49.928;8.410;2022-12-18T03:56:57;22.37;;;8.30;;
6013;SDS011;3035;49.928;8.410;2022-12-18T03:59:26;21.00;;;8.57;;
6013;SDS011;3035;49.928;8.410;2022-12-18T04:01:54;14.07;;;7.60;;
6013;SDS011;3035;49.928;8.410;2022-12-18T04:04:23;29.30;;;9.30;;
6013;SDS011;3035;49.928;8.410;2022-12-18T04:06:51;21.33;;;9.10;;
6013;SDS011;3035;49.928;8.410;2022-12-18T04:09:19;21.93;;;8.30;;
6013;SDS011;3035;49.928;8.410;2022-12-18T04:11:47;19.67;;;8.03;;
6013;SDS011;3035;49.928;8.410;2022-12-18T04:14:16;16.57;;;7.67;;
6013;SDS011;3035;49.928;8.410;2022-12-18T04:16:44;17.80;;;7.60;;
6013;SDS011;3035;49.928;8.410;2022-12-18T04:19:12;14.63;;;7.20;;
6013;SDS011;3035;49.928;8.410;2022-12-18T04:21:40;18.33;;;8.07;;
6013;SDS011;3035;49.928;8.410;2022-12-18T04:24:08;19.33;;;8.10;;
6013;SDS011;3035;49.928;8.410;2022-12-18T04:26:37;17.00;;;7.87;;
6013;SDS011;3035;49.928;8.410;2022-12-18T04:29:05;24.90;;;9.80;;
6013;SDS011;3035;49.928;8.410;2022-12-18T04:31:33;19.77;;;7.97;;
6013;SDS011;3035;49.928;8.410;2022-12-18T04:34:02;16.97;;;7.80;;
6013;SDS011;3035;49.928;8.410;2022-12-18T04:36:31;20.47;;;8.37;;
6013;SDS011;3035;49.928;8.410;2022-12-18T04:38:59;20.10;;;8.70;;
6013;SDS011;3035;49.928;8.410;2022-12-18T04:41:27;22.20;;;8.00;;
6013;SDS011;3035;49.928;8.410;2022-12-18T04:43:55;19.30;;;9.43;;
6013;SDS011;3035;49.928;8.410;2022-12-18T04:46:23;19.20;;;7.70;;
6013;SDS011;3035;49.928;8.410;2022-12-18T04:48:52;17.83;;;8.53;;
6013;SDS011;3035;49.928;8.410;2022-12-18T04:51:20;17.30;;;7.40;;
6013;SDS011;3035;49.928;8.410;2022-12-18T04:53:48;18.40;;;7.30;;
6013;SDS011;3035;49.928;8.410;2022-12-18T04:56:17;19.97;;;7.70;;
6013;SDS011;3035;49.928;8.410;2022-12-18T04:58:45;17.73;;;8.33;;
6013;SDS011;3035;49.928;8.410;2022-12-18T05:01:15;24.00;;;8.90;;
6013;SDS011;3035;49.928;8.410;2022-12-18T05:03:43;18.07;;;8.97;;
6013;SDS011;3035;49.928;8.410;2022-12-18T05:06:11;23.90;;;9.00;;
6013;SDS011;3035;49.928;8.410;2022-12-18T05:08:40;25.50;;;9.67;;
6013;SDS011;3035;49.928;8.410;2022-12-18T05:11:10;16.53;;;7.70;;
6013;SDS011;3035;49.928;8.410;2022-12-18T05:13:38;22.20;;;8.93;;
6013;SDS011;3035;49.928;8.410;2022-12-18T05:16:07;22.23;;;9.00;;
6013;SDS011;3035;49.928;8.410;2022-12-18T05:18:35;18.90;;;8.70;;
6013;SDS011;3035;49.928;8.410;2022-12-18T05:21:03;20.40;;;9.10;;
6013;SDS011;3035;49.928;8.410;2022-12-18T05:23:31;29.30;;;8.93;;
6013;SDS011;3035;49.928;8.410;2022-12-18T05:26:01;14.03;;;8.10;;
6013;SDS011;3035;49.928;8.410;2022-12-18T05:28:30;26.47;;;8.77;;
6013;SDS011;3035;49.928;8.410;2022-12-18T05:30:58;20.13;;;9.70;;
6013;SDS011;3035;49.928;8.410;2022-12-18T05:33:26;27.57;;;10.17;;
6013;SDS011;3035;49.928;8.410;2022-12-18T05:35:55;16.60;;;8.70;;
6013;SDS011;3035;49.928;8.410;2022-12-18T05:38:23;22.50;;;10.00;;
6013;SDS011;3035;49.928;8.410;2022-12-18T05:40:50;20.20;;;9.53;;
6013;SDS011;3035;49.928;8.410;2022-12-18T05:43:19;20.30;;;8.63;;
6013;SDS011;3035;49.928;8.410;2022-12-18T05:45:47;22.43;;;8.43;;
6013;SDS011;3035;49.928;8.410;2022-12-18T05:48:16;24.77;;;8.63;;
6013;SDS011;3035;49.928;8.410;2022-12-18T05:50:44;24.70;;;8.80;;
6013;SDS011;3035;49.928;8.410;2022-12-18T05:53:13;21.47;;;8.40;;
6013;SDS011;3035;49.928;8.410;2022-12-18T05:55:43;19.60;;;9.20;;
6013;SDS011;3035;49.928;8.410;2022-12-18T05:58:12;20.57;;;10.63;;
6013;SDS011;3035;49.928;8.410;2022-12-18T06:00:41;18.20;;;8.77;;
6013;SDS011;3035;49.928;8.410;2022-12-18T06:03:08;15.97;;;9.00;;
6013;SDS011;3035;49.928;8.410;2022-12-18T06:05:37;20.17;;;8.67;;
6013;SDS011;3035;49.928;8.410;2022-12-18T06:08:04;19.80;;;8.53;;
6013;SDS011;3035;49.928;8.410;2022-12-18T06:10:33;16.23;;;8.90;;
6013;SDS011;3035;49.928;8.410;2022-12-18T06:13:02;23.60;;;9.37;;
6013;SDS011;3035;49.928;8.410;2022-12-18T06:15:30;25.13;;;9.60;;
6013;SDS011;3035;49.928;8.410;2022-12-18T06:17:59;17.23;;;8.47;;
6013;SDS011;3035;49.928;8.410;2022-12-18T06:20:26;22.33;;;8.63;;
6013;SDS011;3035;49.928;8.410;2022-12-18T06:22:54;23.47;;;8.37;;
6013;SDS011;3035;49.928;8.410;2022-12-18T06:25:23;27.37;;;9.20;;
6013;SDS011;3035;49.928;8.410;2022-12-18T06:27:51;24.73;;;9.17;;
6013;SDS011;3035;49.928;8.410;2022-12-18T06:30:19;16.70;;;8.50;;
6013;SDS011;3035;49.928;8.410;2022-12-18T06:32:48;18.87;;;9.30;;
6013;SDS011;3035;49.928;8.410;2022-12-18T06:35:15;24.47;;;9.07;;
6013;SDS011;3035;49.928;8.410;2022-12-18T06:37:44;16.67;;;7.27;;
6013;SDS011;3035;49.928;8.410;2022-12-18T06:40:13;16.10;;;8.67;;
6013;SDS011;3035;49.928;8.410;2022-12-18T06:42:41;23.77;;;8.80;;
6013;SDS011;3035;49.928;8.410;2022-12-18T06:45:10;29.47;;;10.20;;
6013;SDS011;3035;49.928;8.410;2022-12-18T06:47:38;17.50;;;7.97;;
6013;SDS011;3035;49.928;8.410;2022-12-18T06:50:07;20.20;;;8.50;;
6013;SDS011;3035;49.928;8.410;2022-12-18T06:52:35;17.50;;;8.47;;
6013;SDS011;3035;49.928;8.410;2022-12-18T06:55:03;25.27;;;9.83;;
6013;SDS011;3035;49.928;8.410;2022-12-18T06:57:33;19.00;;;9.10;;
6013;SDS011;3035;49.928;8.410;2022-12-18T07:00:02;19.17;;;8.80;;
6013;SDS011;3035;49.928;8.410;2022-12-18T07:02:30;16.27;;;8.50;;
6013;SDS011;3035;49.928;8.410;2022-12-18T07:04:58;18.83;;;8.23;;
6013;SDS011;3035;49.928;8.410;2022-12-18T07:07:26;22.13;;;8.30;;
6013;SDS011;3035;49.928;8.410;2022-12-18T07:09:54;21.63;;;9.20;;
6013;SDS011;3035;49.928;8.410;2022-12-18T07:12:23;20.00;;;8.57;;
6013;SDS011;3035;49.928;8.410;2022-12-18T07:14:51;25.00;;;10.50;;
6013;SDS011;3035;49.928;8.410;2022-12-18T07:17:19;28.23;;;10.43;;
6013;SDS011;3035;49.928;8.410;2022-12-18T07:19:47;23.47;;;9.60;;
6013;SDS011;3035;49.928;8.410;2022-12-18T07:22:16;28.67;;;10.23;;
6013;SDS011;3035;49.928;8.410;2022-12-18T07:24:44;25.90;;;10.60;;
6013;SDS011;3035;49.928;8.410;2022-12-18T07:27:12;25.23;;;10.97;;
6013;SDS011;3035;49.928;8.410;2022-12-18T07:29:40;24.97;;;11.60;;
6013;SDS011;3035;49.928;8.410;2022-12-18T07:32:09;21.77;;;10.27;;
6013;SDS011;3035;49.928;8.410;2022-12-18T07:34:38;19.70;;;9.90;;
6013;SDS011;3035;49.928;8.410;2022-12-18T07:37:07;14.00;;;8.37;;
6013;SDS011;3035;49.928;8.410;2022-12-18T07:39:35;19.40;;;8.93;;
6013;SDS011;3035;49.928;8.410;2022-12-18T07:42:04;19.93;;;9.87;;
6013;SDS011;3035;49.928;8.410;2022-12-18T07:44:38;24.33;;;10.73;;
6013;SDS011;3035;49.928;8.410;2022-12-18T07:47:06;20.80;;;9.83;;
6013;SDS011;3035;49.928;8.410;2022-12-18T07:49:35;28.17;;;10.83;;
6013;SDS011;3035;49.928;8.410;2022-12-18T07:52:03;22.23;;;11.20;;
6013;SDS011;3035;49.928;8.410;2022-12-18T07:54:31;19.73;;;10.57;;
6013;SDS011;3035;49.928;8.410;2022-12-18T07:57:00;26.50;;;10.87;;
6013;SDS011;3035;49.928;8.410;2022-12-18T07:59:29;20.40;;;9.57;;
6013;SDS011;3035;49.928;8.410;2022-12-18T08:01:57;22.90;;;9.40;;
6013;SDS011;3035;49.928;8.410;2022-12-18T08:04:26;22.10;;;10.60;;
6013;SDS011;3035;49.928;8.410;2022-12-18T08:06:54;26.50;;;11.33;;
6013;SDS011;3035;49.928;8.410;2022-12-18T08:09:22;26.80;;;12.00;;
6013;SDS011;3035;49.928;8.410;2022-12-18T08:11:50;21.80;;;10.07;;
6013;SDS011;3035;49.928;8.410;2022-12-18T08:14:19;16.73;;;9.20;;
6013;SDS011;3035;49.928;8.410;2022-12-18T08:16:47;24.30;;;9.83;;
6013;SDS011;3035;49.928;8.410;2022-12-18T08:19:15;18.70;;;9.43;;
6013;SDS011;3035;49.928;8.410;2022-12-18T08:21:43;19.73;;;9.40;;
6013;SDS011;3035;49.928;8.410;2022-12-18T08:24:11;23.60;;;10.87;;
6013;SDS011;3035;49.928;8.410;2022-12-18T08:26:40;24.10;;;10.20;;
6013;SDS011;3035;49.928;8.410;2022-12-18T08:29:08;23.70;;;10.50;;
6013;SDS011;3035;49.928;8.410;2022-12-18T08:31:36;24.27;;;10.80;;
6013;SDS011;3035;49.928;8.410;2022-12-18T08:34:04;22.33;;;9.93;;
6013;SDS011;3035;49.928;8.410;2022-12-18T08:36:32;23.67;;;10.53;;
6013;SDS011;3035;49.928;8.410;2022-12-18T08:39:01;19.90;;;10.10;;
6013;SDS011;3035;49.928;8.410;2022-12-18T08:41:30;23.87;;;9.03;;
6013;SDS011;3035;49.928;8.410;2022-12-18T08:43:58;26.70;;;11.27;;
6013;SDS011;3035;49.928;8.410;2022-12-18T08:46:35;31.97;;;12.40;;
6013;SDS011;3035;49.928;8.410;2022-12-18T08:49:03;22.00;;;10.33;;
6013;SDS011;3035;49.928;8.410;2022-12-18T08:51:31;21.17;;;9.57;;
6013;SDS011;3035;49.928;8.410;2022-12-18T08:54:00;20.60;;;11.07;;
6013;SDS011;3035;49.928;8.410;2022-12-18T08:56:29;25.30;;;10.80;;
6013;SDS011;3035;49.928;8.410;2022-12-18T08:58:57;27.10;;;11.67;;
6013;SDS011;3035;49.928;8.410;2022-12-18T09:01:25;28.53;;;13.33;;
6013;SDS011;3035;49.928;8.410;2022-12-18T09:03:53;24.20;;;11.43;;
6013;SDS011;3035;49.928;8.410;2022-12-18T09:06:22;29.63;;;12.70;;
6013;SDS011;3035;49.928;8.410;2022-12-18T09:08:50;26.60;;;13.00;;
6013;SDS011;3035;49.928;8.410;2022-12-18T09:11:20;30.10;;;12.67;;
6013;SDS011;3035;49.928;8.410;2022-12-18T09:13:48;20.67;;;10.13;;
6013;SDS011;3035;49.928;8.410;2022-12-18T09:16:17;28.93;;;11.37;;
6013;SDS011;3035;49.928;8.410;2022-12-18T09:18:45;24.40;;;11.40;;
6013;SDS011;3035;49.928;8.410;2022-12-18T09:21:14;34.50;;;14.20;;
6013;SDS011;3035;49.928;8.410;2022-12-18T09:23:42;31.80;;;11.67;;
6013;SDS011;3035;49.928;8.410;2022-12-18T09:26:11;30.47;;;12.50;;
6013;SDS011;3035;49.928;8.410;2022-12-18T09:28:39;32.43;;;14.10;;
6013;SDS011;3035;49.928;8.410;2022-12-18T09:31:10;26.83;;;13.07;;
6013;SDS011;3035;49.928;8.410;2022-12-18T09:33:37;29.53;;;14.00;;
6013;SDS011;3035;49.928;8.410;2022-12-18T09:36:07;31.20;;;13.30;;
6013;SDS011;3035;49.928;8.410;2022-12-18T09:38:35;34.97;;;13.80;;
6013;SDS011;3035;49.928;8.410;2022-12-18T09:41:15;27.40;;;12.70;;
6013;SDS011;3035;49.928;8.410;2022-12-18T09:43:44;39.33;;;14.43;;
6013;SDS011;3035;49.928;8.410;2022-12-18T09:46:16;37.03;;;16.30;;
6013;SDS011;3035;49.928;8.410;2022-12-18T09:48:45;31.63;;;15.70;;
6013;SDS011;3035;49.928;8.410;2022-12-18T09:51:15;36.17;;;14.07;;
6013;SDS011;3035;49.928;8.410;2022-12-18T09:53:47;31.10;;;14.57;;
6013;SDS011;3035;49.928;8.410;2022-12-18T09:56:16;27.60;;;14.20;;
6013;SDS011;3035;49.928;8.410;2022-12-18T09:58:45;24.67;;;11.87;;
6013;SDS011;3035;49.928;8.410;2022-12-18T10:01:13;35.73;;;14.03;;
6013;SDS011;3035;49.928;8.410;2022-12-18T10:03:42;24.07;;;11.67;;
6013;SDS011;3035;49.928;8.410;2022-12-18T10:06:15;22.60;;;11.60;;
6013;SDS011;3035;49.928;8.410;2022-12-18T10:08:46;27.87;;;12.50;;
6013;SDS011;3035;49.928;8.410;2022-12-18T10:11:21;30.53;;;13.47;;
6013;SDS011;3035;49.928;8.410;2022-12-18T10:13:54;28.00;;;13.60;;
6013;SDS011;3035;49.928;8.410;2022-12-18T10:16:26;26.60;;;13.23;;
6013;SDS011;3035;49.928;8.410;2022-12-18T10:19:01;35.63;;;15.57;;
6013;SDS011;3035;49.928;8.410;2022-12-18T10:21:34;26.60;;;13.10;;
6013;SDS011;3035;49.928;8.410;2022-12-18T10:24:08;38.57;;;14.93;;
6013;SDS011;3035;49.928;8.410;2022-12-18T10:26:46;28.47;;;13.63;;
6013;SDS011;3035;49.928;8.410;2022-12-18T10:29:15;32.07;;;14.70;;
6013;SDS011;3035;49.928;8.410;2022-12-18T10:31:43;29.50;;;14.33;;
6013;SDS011;3035;49.928;8.410;2022-12-18T10:34:11;32.83;;;16.07;;
6013;SDS011;3035;49.928;8.410;2022-12-18T10:36:41;29.53;;;14.27;;
6013;SDS011;3035;49.928;8.410;2022-12-18T10:39:19;30.67;;;14.50;;
6013;SDS011;3035;49.928;8.410;2022-12-18T10:41:46;27.67;;;14.33;;
6013;SDS011;3035;49.928;8.410;2022-12-18T10:44:17;33.37;;;14.73;;
6013;SDS011;3035;49.928;8.410;2022-12-18T10:46:46;27.50;;;13.40;;
6013;SDS011;3035;49.928;8.410;2022-12-18T10:49:21;27.63;;;13.87;;
6013;SDS011;3035;49.928;8.410;2022-12-18T10:54:32;29.07;;;15.03;;
6013;SDS011;3035;49.928;8.410;2022-12-18T11:00:18;31.80;;;17.30;;
6013;SDS011;3035;49.928;8.410;2022-12-18T11:02:49;33.73;;;16.20;;
6013;SDS011;3035;49.928;8.410;2022-12-18T11:07:55;31.90;;;16.60;;
6013;SDS011;3035;49.928;8.410;2022-12-18T11:10:25;37.47;;;15.90;;
6013;SDS011;3035;49.928;8.410;2022-12-18T11:12:54;36.77;;;15.30;;
6013;SDS011;3035;49.928;8.410;2022-12-18T11:15:26;31.47;;;14.30;;
6013;SDS011;3035;49.928;8.410;2022-12-18T11:17:54;40.73;;;17.07;;
6013;SDS011;3035;49.928;8.410;2022-12-18T11:20:27;33.37;;;15.83;;
6013;SDS011;3035;49.928;8.410;2022-12-18T11:22:59;44.17;;;17.43;;
6013;SDS011;3035;49.928;8.410;2022-12-18T11:25:29;35.53;;;16.77;;
6013;SDS011;3035;49.928;8.410;2022-12-18T11:27:59;36.70;;;16.17;;
6013;SDS011;3035;49.928;8.410;2022-12-18T11:30:29;38.97;;;16.37;;
6013;SDS011;3035;49.928;8.410;2022-12-18T11:32:59;41.43;;;16.13;;
6013;SDS011;3035;49.928;8.410;2022-12-18T11:35:35;37.87;;;16.53;;
6013;SDS011;3035;49.928;8.410;2022-12-18T11:38:06;38.53;;;16.57;;
6013;SDS011;3035;49.928;8.410;2022-12-18T11:40:36;39.83;;;17.77;;
6013;SDS011;3035;49.928;8.410;2022-12-18T11:43:07;43.87;;;18.00;;
6013;SDS011;3035;49.928;8.410;2022-12-18T11:45:39;36.50;;;16.23;;
6013;SDS011;3035;49.928;8.410;2022-12-18T11:48:19;42.57;;;18.17;;
6013;SDS011;3035;49.928;8.410;2022-12-18T11:50:49;42.90;;;17.03;;
6013;SDS011;3035;49.928;8.410;2022-12-18T11:53:20;45.77;;;16.63;;
6013;SDS011;3035;49.928;8.410;2022-12-18T11:55:51;40.23;;;17.60;;
6013;SDS011;3035;49.928;8.410;2022-12-18T12:01:34;48.83;;;18.97;;
6013;SDS011;3035;49.928;8.410;2022-12-18T12:04:27;45.40;;;18.40;;
6013;SDS011;3035;49.928;8.410;2022-12-18T12:10:01;41.07;;;17.73;;
6013;SDS011;3035;49.928;8.410;2022-12-18T12:13:00;49.27;;;18.20;;
6013;SDS011;3035;49.928;8.410;2022-12-18T12:15:31;39.10;;;16.87;;
6013;SDS011;3035;49.928;8.410;2022-12-18T12:18:26;35.90;;;16.50;;
6013;SDS011;3035;49.928;8.410;2022-12-18T12:21:16;40.50;;;16.97;;
6013;SDS011;3035;49.928;8.410;2022-12-18T12:23:54;44.30;;;18.20;;
6013;SDS011;3035;49.928;8.410;2022-12-18T12:29:31;42.70;;;18.37;;
6013;SDS011;3035;49.928;8.410;2022-12-18T12:32:08;43.73;;;17.40;;
6013;SDS011;3035;49.928;8.410;2022-12-18T12:37:42;38.97;;;16.93;;
6013;SDS011;3035;49.928;8.410;2022-12-18T12:40:12;62.70;;;20.07;;
6013;SDS011;3035;49.928;8.410;2022-12-18T12:42:43;43.80;;;20.00;;
6013;SDS011;3035;49.928;8.410;2022-12-18T12:45:19;41.60;;;19.70;;
6013;SDS011;3035;49.928;8.410;2022-12-18T12:47:45;39.70;;;17.83;;
6013;SDS011;3035;49.928;8.410;2022-12-18T12:50:15;43.80;;;17.60;;
6013;SDS011;3035;49.928;8.410;2022-12-18T12:52:45;40.07;;;14.77;;
6013;SDS011;3035;49.928;8.410;2022-12-18T12:55:16;45.23;;;18.03;;
6013;SDS011;3035;49.928;8.410;2022-12-18T12:57:48;42.00;;;17.43;;
6013;SDS011;3035;49.928;8.410;2022-12-18T13:00:37;40.73;;;17.63;;
6013;SDS011;3035;49.928;8.410;2022-12-18T13:03:08;47.10;;;17.73;;
6013;SDS011;3035;49.928;8.410;2022-12-18T13:05:45;36.80;;;17.63;;
6013;SDS011;3035;49.928;8.410;2022-12-18T13:08:21;47.97;;;18.70;;
6013;SDS011;3035;49.928;8.410;2022-12-18T13:10:40;45.73;;;20.23;;
6013;SDS011;3035;49.928;8.410;2022-12-18T13:13:09;53.50;;;19.87;;
6013;SDS011;3035;49.928;8.410;2022-12-18T13:15:40;42.63;;;17.63;;
6013;SDS011;3035;49.928;8.410;2022-12-18T13:18:13;40.50;;;17.83;;
6013;SDS011;3035;49.928;8.410;2022-12-18T13:20:45;41.93;;;17.00;;
6013;SDS011;3035;49.928;8.410;2022-12-18T13:28:59;54.40;;;19.10;;
6013;SDS011;3035;49.928;8.410;2022-12-18T13:31:57;44.90;;;17.50;;
6013;SDS011;3035;49.928;8.410;2022-12-18T13:34:28;38.23;;;17.80;;
6013;SDS011;3035;49.928;8.410;2022-12-18T13:37:35;47.53;;;17.43;;
6013;SDS011;3035;49.928;8.410;2022-12-18T13:39:46;48.27;;;18.87;;
6013;SDS011;3035;49.928;8.410;2022-12-18T13:42:31;51.37;;;18.23;;
6013;SDS011;3035;49.928;8.410;2022-12-18T13:45:31;47.03;;;17.97;;
6013;SDS011;3035;49.928;8.410;2022-12-18T13:47:48;47.30;;;18.17;;
6013;SDS011;3035;49.928;8.410;2022-12-18T13:50:23;43.33;;;19.20;;
6013;SDS011;3035;49.928;8.410;2022-12-18T13:52:51;50.63;;;18.37;;
6013;SDS011;3035;49.928;8.410;2022-12-18T13:55:19;34.27;;;15.70;;
6013;SDS011;3035;49.928;8.410;2022-12-18T13:57:47;55.60;;;17.50;;
6013;SDS011;3035;49.928;8.410;2022-12-18T14:00:23;39.07;;;16.37;;
6013;SDS011;3035;49.928;8.410;2022-12-18T14:02:59;41.80;;;17.40;;
6013;SDS011;3035;49.928;8.410;2022-12-18T14:05:31;40.27;;;17.60;;
6013;SDS011;3035;49.928;8.410;2022-12-18T14:08:00;46.20;;;17.80;;
6013;SDS011;3035;49.928;8.410;2022-12-18T14:10:30;44.70;;;17.23;;
6013;SDS011;3035;49.928;8.410;2022-12-18T14:13:03;44.53;;;17.70;;
6013;SDS011;3035;49.928;8.410;2022-12-18T14:15:32;44.63;;;16.50;;
6013;SDS011;3035;49.928;8.410;2022-12-18T14:18:01;40.93;;;17.23;;
6013;SDS011;3035;49.928;8.410;2022-12-18T14:20:46;38.17;;;16.53;;
6013;SDS011;3035;49.928;8.410;2022-12-18T14:26:00;41.60;;;16.70;;
6013;SDS011;3035;49.928;8.410;2022-12-18T14:28:30;43.37;;;16.37;;
6013;SDS011;3035;49.928;8.410;2022-12-18T14:30:59;34.43;;;15.37;;
6013;SDS011;3035;49.928;8.410;2022-12-18T14:33:28;46.47;;;16.70;;
6013;SDS011;3035;49.928;8.410;2022-12-18T14:35:58;53.93;;;17.20;;
6013;SDS011;3035;49.928;8.410;2022-12-18T14:38:30;41.60;;;16.43;;
6013;SDS011;3035;49.928;8.410;2022-12-18T14:40:58;52.20;;;18.30;;
6013;SDS011;3035;49.928;8.410;2022-12-18T14:43:29;48.43;;;19.17;;
6013;SDS011;3035;49.928;8.410;2022-12-18T14:45:58;40.00;;;15.90;;
6013;SDS011;3035;49.928;8.410;2022-12-18T14:51:05;37.47;;;15.63;;
6013;SDS011;3035;49.928;8.410;2022-12-18T14:53:35;39.13;;;15.97;;
6013;SDS011;3035;49.928;8.410;2022-12-18T14:56:04;45.33;;;16.07;;
6013;SDS011;3035;49.928;8.410;2022-12-18T14:58:50;37.17;;;14.60;;
6013;SDS011;3035;49.928;8.410;2022-12-18T15:01:29;41.33;;;17.30;;
6013;SDS011;3035;49.928;8.410;2022-12-18T15:04:00;42.53;;;15.40;;
6013;SDS011;3035;49.928;8.410;2022-12-18T15:06:34;41.43;;;15.87;;
6013;SDS011;3035;49.928;8.410;2022-12-18T15:09:04;38.70;;;14.57;;
6013;SDS011;3035;49.928;8.410;2022-12-18T15:11:36;37.03;;;15.20;;
6013;SDS011;3035;49.928;8.410;2022-12-18T15:14:22;40.60;;;16.90;;
6013;SDS011;3035;49.928;8.410;2022-12-18T15:16:52;36.57;;;15.97;;
6013;SDS011;3035;49.928;8.410;2022-12-18T15:19:21;37.13;;;15.90;;
6013;SDS011;3035;49.928;8.410;2022-12-18T15:21:49;42.60;;;17.73;;
6013;SDS011;3035;49.928;8.410;2022-12-18T15:24:26;40.17;;;14.70;;
6013;SDS011;3035;49.928;8.410;2022-12-18T15:26:47;39.03;;;14.60;;
6013;SDS011;3035;49.928;8.410;2022-12-18T15:29:19;38.20;;;14.63;;
6013;SDS011;3035;49.928;8.410;2022-12-18T15:31:57;36.60;;;14.63;;
6013;SDS011;3035;49.928;8.410;2022-12-18T15:34:29;38.10;;;15.97;;
6013;SDS011;3035;49.928;8.410;2022-12-18T15:36:57;34.27;;;15.20;;
6013;SDS011;3035;49.928;8.410;2022-12-18T15:39:26;35.93;;;15.87;;
6013;SDS011;3035;49.928;8.410;2022-12-18T15:41:55;37.53;;;16.00;;
6013;SDS011;3035;49.928;8.410;2022-12-18T15:44:30;38.27;;;15.77;;
6013;SDS011;3035;49.928;8.410;2022-12-18T15:46:58;35.37;;;15.37;;
6013;SDS011;3035;49.928;8.410;2022-12-18T15:49:27;31.77;;;13.77;;
6013;SDS011;3035;49.928;8.410;2022-12-18T15:51:56;33.77;;;15.13;;
6013;SDS011;3035;49.928;8.410;2022-12-18T15:54:24;42.70;;;17.00;;
6013;SDS011;3035;49.928;8.410;2022-12-18T15:56:59;43.30;;;16.20;;
6013;SDS011;3035;49.928;8.410;2022-12-18T15:59:33;45.43;;;16.20;;